createdAt,value
2017-01-03T00:00:20.169Z,0
2017-01-03T00:01:19.797Z,0
2017-01-03T00:02:19.809Z,0
2017-01-03T00:03:34.745Z,0
2017-01-03T00:04:34.762Z,0
2017-01-03T00:05:19.863Z,0
2017-01-03T00:06:19.871Z,0
2017-01-03T00:08:34.822Z,0
2017-01-03T00:11:19.944Z,0
2017-01-03T00:12:19.966Z,0
2017-01-03T00:13:20.027Z,0
2017-01-03T00:14:19.993Z,0
2017-01-03T00:15:20.006Z,0
2017-01-03T00:16:34.944Z,0
2017-01-03T00:17:20.035Z,0
2017-01-03T00:18:20.053Z,0
2017-01-03T00:19:34.986Z,0
2017-01-03T00:20:20.085Z,0
2017-01-03T00:21:20.096Z,0
2017-01-03T00:22:20.110Z,0
2017-01-03T00:24:35.061Z,0
2017-01-03T00:26:20.177Z,0
2017-01-03T00:27:20.220Z,0
2017-01-03T00:28:35.121Z,0
2017-01-03T00:29:20.218Z,0
2017-01-03T00:30:20.235Z,0
2017-01-03T00:31:35.165Z,0
2017-01-03T00:32:20.262Z,0
2017-01-03T00:33:20.278Z,0
2017-01-03T00:34:20.295Z,0
2017-01-03T00:35:35.226Z,0
2017-01-03T00:36:20.320Z,0
2017-01-03T00:37:20.337Z,0
2017-01-03T00:38:20.390Z,0
2017-01-03T00:39:20.369Z,0
2017-01-03T00:40:35.300Z,0
2017-01-03T00:41:20.396Z,0
2017-01-03T00:42:20.414Z,0
2017-01-03T00:43:20.425Z,0
2017-01-03T00:44:20.444Z,0
2017-01-03T00:45:20.458Z,0
2017-01-03T00:46:35.391Z,0
2017-01-03T00:47:20.487Z,0
2017-01-03T00:48:20.503Z,0
2017-01-03T00:49:20.515Z,0
2017-01-03T00:50:35.458Z,0
2017-01-03T00:51:20.880Z,0
2017-01-03T00:52:35.484Z,0
2017-01-03T00:53:20.578Z,0
2017-01-03T00:54:20.596Z,0
2017-01-03T00:55:20.613Z,0
2017-01-03T00:56:35.543Z,0
2017-01-03T00:57:21.023Z,0
2017-01-03T00:58:20.657Z,0
2017-01-03T00:59:20.673Z,0
2017-01-03T01:00:20.683Z,0
2017-01-03T01:01:35.619Z,0
2017-01-03T01:02:20.716Z,0
2017-01-03T01:03:20.728Z,0
2017-01-03T01:04:20.745Z,0
2017-01-03T01:05:20.758Z,0
2017-01-03T01:06:35.694Z,0
2017-01-03T01:07:20.788Z,0
2017-01-03T01:08:35.721Z,0
2017-01-03T01:09:20.826Z,0
2017-01-03T01:11:35.768Z,0
2017-01-03T01:13:20.880Z,0
2017-01-03T01:14:20.897Z,0
2017-01-03T01:15:20.919Z,0
2017-01-03T01:16:35.845Z,0
2017-01-03T01:17:20.943Z,0
2017-01-03T01:18:20.957Z,0
2017-01-03T01:19:20.977Z,0
2017-01-03T01:20:21.012Z,0
2017-01-03T01:21:21.000Z,0
2017-01-03T01:22:50.851Z,0
2017-01-03T01:23:21.435Z,0
2017-01-03T01:24:35.965Z,0
2017-01-03T01:25:21.086Z,0
2017-01-03T01:27:21.095Z,0
2017-01-03T01:28:21.109Z,0
2017-01-03T01:29:36.045Z,0
2017-01-03T01:30:21.139Z,0
2017-01-03T01:31:21.151Z,0
2017-01-03T01:32:36.088Z,0
2017-01-03T01:33:21.189Z,0
2017-01-03T01:34:36.118Z,0
2017-01-03T01:35:36.131Z,0
2017-01-03T01:36:21.230Z,0
2017-01-03T01:37:21.243Z,0
2017-01-03T01:38:36.179Z,0
2017-01-03T01:39:21.271Z,0
2017-01-03T01:40:21.290Z,0
2017-01-03T01:42:21.318Z,0
2017-01-03T01:43:36.264Z,0
2017-01-03T01:44:21.351Z,0
2017-01-03T01:45:21.390Z,0
2017-01-03T01:46:21.380Z,0
2017-01-03T01:47:21.394Z,0
2017-01-03T01:48:21.412Z,0
2017-01-03T01:49:21.429Z,0
2017-01-03T01:50:21.441Z,0
2017-01-03T01:51:21.456Z,0
2017-01-03T01:52:21.471Z,0
2017-01-03T01:53:21.488Z,0
2017-01-03T01:54:21.502Z,0
2017-01-03T01:55:36.433Z,0
2017-01-03T01:56:21.540Z,0
2017-01-03T01:57:21.548Z,0
2017-01-03T01:58:21.563Z,0
2017-01-03T01:59:36.502Z,0
2017-01-03T02:00:21.593Z,0
2017-01-03T02:01:21.610Z,0
2017-01-03T02:02:21.622Z,0
2017-01-03T02:03:21.641Z,0
2017-01-03T02:04:36.574Z,0
2017-01-03T02:05:36.588Z,0
2017-01-03T02:06:21.692Z,0
2017-01-03T02:07:21.700Z,0
2017-01-03T02:08:21.718Z,0
2017-01-03T02:10:21.804Z,0
2017-01-03T02:11:36.684Z,0
2017-01-03T02:12:21.782Z,0
2017-01-03T02:13:21.801Z,0
2017-01-03T02:14:21.807Z,0
2017-01-03T02:15:36.746Z,0
2017-01-03T02:16:21.840Z,0
2017-01-03T02:17:21.856Z,0
2017-01-03T02:18:21.874Z,0
2017-01-03T02:19:21.887Z,0
2017-01-03T02:20:21.903Z,0
2017-01-03T02:21:36.840Z,0
2017-01-03T02:22:21.934Z,0
2017-01-03T02:23:21.947Z,0
2017-01-03T02:24:21.963Z,0
2017-01-03T02:25:21.978Z,0
2017-01-03T02:26:21.996Z,0
2017-01-03T02:27:22.010Z,0
2017-01-03T02:28:22.023Z,0
2017-01-03T02:29:22.039Z,0
2017-01-03T02:30:36.970Z,0
2017-01-03T02:31:36.988Z,0
2017-01-03T02:33:22.102Z,0
2017-01-03T02:34:22.220Z,0
2017-01-03T02:35:22.132Z,0
2017-01-03T02:36:37.073Z,0
2017-01-03T02:37:37.081Z,0
2017-01-03T02:38:22.180Z,0
2017-01-03T02:39:22.195Z,0
2017-01-03T02:40:22.214Z,0
2017-01-03T02:41:22.223Z,0
2017-01-03T02:42:22.243Z,0
2017-01-03T02:43:22.254Z,0
2017-01-03T02:44:22.287Z,0
2017-01-03T02:45:22.293Z,0
2017-01-03T02:46:37.220Z,0
2017-01-03T02:47:22.705Z,0
2017-01-03T02:48:22.334Z,0
2017-01-03T02:49:22.348Z,0
2017-01-03T02:50:22.375Z,0
2017-01-03T02:51:22.382Z,0
2017-01-03T02:52:22.394Z,0
2017-01-03T02:53:22.414Z,0
2017-01-03T02:54:22.431Z,0
2017-01-03T02:55:22.440Z,0
2017-01-03T02:56:22.460Z,0
2017-01-03T02:57:37.394Z,0
2017-01-03T02:58:22.493Z,0
2017-01-03T03:00:22.536Z,0
2017-01-03T03:01:22.685Z,0
2017-01-03T03:03:22.566Z,0
2017-01-03T03:04:22.583Z,0
2017-01-03T03:05:22.598Z,0
2017-01-03T03:06:22.618Z,0
2017-01-03T03:07:22.631Z,0
2017-01-03T03:08:22.646Z,0
2017-01-03T03:09:22.656Z,0
2017-01-03T03:10:37.595Z,0
2017-01-03T03:11:22.693Z,0
2017-01-03T03:12:22.720Z,0
2017-01-03T03:15:37.669Z,0
2017-01-03T03:16:22.799Z,0
2017-01-03T03:17:22.784Z,0
2017-01-03T03:18:37.720Z,0
2017-01-03T03:20:22.857Z,0
2017-01-03T03:21:22.847Z,0
2017-01-03T03:22:22.866Z,0
2017-01-03T03:23:22.878Z,0
2017-01-03T03:24:22.929Z,0
2017-01-03T03:25:22.906Z,0
2017-01-03T03:27:22.939Z,0
2017-01-03T03:28:22.958Z,0
2017-01-03T03:29:52.805Z,0
2017-01-03T03:30:22.988Z,0
2017-01-03T03:31:23.002Z,0
2017-01-03T03:32:23.017Z,0
2017-01-03T03:33:23.065Z,0
2017-01-03T03:34:37.969Z,0
2017-01-03T03:35:23.064Z,0
2017-01-03T03:36:23.083Z,0
2017-01-03T03:37:23.099Z,0
2017-01-03T03:38:23.108Z,0
2017-01-03T03:39:23.130Z,0
2017-01-03T03:40:23.143Z,0
2017-01-03T03:41:23.158Z,0
2017-01-03T03:42:23.175Z,0
2017-01-03T03:43:23.188Z,0
2017-01-03T03:44:23.207Z,0
2017-01-03T03:45:38.139Z,0
2017-01-03T03:46:38.154Z,0
2017-01-03T03:47:23.252Z,0
2017-01-03T03:48:38.216Z,0
2017-01-03T03:49:23.288Z,0
2017-01-03T03:50:38.219Z,0
2017-01-03T03:52:23.329Z,0
2017-01-03T03:53:23.344Z,0
2017-01-03T03:54:38.282Z,0
2017-01-03T03:55:23.377Z,0
2017-01-03T03:56:38.311Z,0
2017-01-03T03:57:23.411Z,0
2017-01-03T03:58:23.429Z,0
2017-01-03T03:59:23.442Z,0
2017-01-03T04:00:23.457Z,0
2017-01-03T04:01:23.473Z,0
2017-01-03T04:02:38.404Z,0
2017-01-03T04:03:23.500Z,0
2017-01-03T04:04:23.523Z,0
2017-01-03T04:05:23.535Z,0
2017-01-03T04:06:38.467Z,0
2017-01-03T04:07:23.564Z,0
2017-01-03T04:08:23.581Z,0
2017-01-03T04:09:23.595Z,0
2017-01-03T04:10:23.614Z,0
2017-01-03T04:11:24.013Z,0
2017-01-03T04:12:23.641Z,0
2017-01-03T04:13:23.659Z,0
2017-01-03T04:15:23.690Z,0
2017-01-03T04:16:23.730Z,0
2017-01-03T04:18:38.686Z,0
2017-01-03T04:19:23.755Z,0
2017-01-03T04:20:23.769Z,0
2017-01-03T04:21:38.711Z,0
2017-01-03T04:22:23.802Z,0
2017-01-03T04:23:23.815Z,0
2017-01-03T04:24:23.830Z,0
2017-01-03T04:25:24.230Z,0
2017-01-03T04:26:23.863Z,0
2017-01-03T04:27:23.876Z,0
2017-01-03T04:28:23.893Z,0
2017-01-03T04:29:23.912Z,0
2017-01-03T04:30:23.931Z,0
2017-01-03T04:31:38.858Z,0
2017-01-03T04:32:53.790Z,0
2017-01-03T04:35:38.950Z,0
2017-01-03T04:38:24.049Z,0
2017-01-03T04:39:24.066Z,0
2017-01-03T04:40:24.471Z,0
2017-01-03T04:41:24.098Z,0
2017-01-03T04:42:24.116Z,0
2017-01-03T04:43:24.126Z,0
2017-01-03T04:44:24.176Z,0
2017-01-03T04:45:24.160Z,0
2017-01-03T04:46:39.094Z,0
2017-01-03T04:47:54.025Z,0
2017-01-03T04:48:39.426Z,0
2017-01-03T04:51:24.256Z,0
2017-01-03T04:52:24.270Z,0
2017-01-03T04:53:39.202Z,0
2017-01-03T04:54:24.299Z,0
2017-01-03T04:55:24.317Z,0
2017-01-03T04:56:24.330Z,0
2017-01-03T04:57:24.344Z,0
2017-01-03T04:58:24.358Z,0
2017-01-03T04:59:24.377Z,0
2017-01-03T05:00:24.391Z,0
2017-01-03T05:01:24.412Z,0
2017-01-03T05:02:24.423Z,0
2017-01-03T05:03:24.443Z,0
2017-01-03T05:04:24.492Z,0
2017-01-03T05:05:24.473Z,0
2017-01-03T05:06:24.490Z,0
2017-01-03T05:07:24.502Z,0
2017-01-03T05:08:24.521Z,0
2017-01-03T05:09:39.456Z,0
2017-01-03T05:10:24.552Z,0
2017-01-03T05:11:24.567Z,0
2017-01-03T05:12:24.583Z,0
2017-01-03T05:13:24.600Z,0
2017-01-03T05:14:24.615Z,0
2017-01-03T05:15:24.628Z,0
2017-01-03T05:16:24.648Z,0
2017-01-03T05:17:24.667Z,0
2017-01-03T05:18:24.678Z,0
2017-01-03T05:19:24.691Z,0
2017-01-03T05:20:54.541Z,0
2017-01-03T05:21:24.724Z,0
2017-01-03T05:22:24.743Z,0
2017-01-03T05:23:24.754Z,0
2017-01-03T05:24:24.769Z,0
2017-01-03T05:25:39.703Z,0
2017-01-03T05:27:24.817Z,0
2017-01-03T05:28:24.884Z,0
2017-01-03T05:30:39.781Z,0
2017-01-03T05:31:39.798Z,0
2017-01-03T05:32:24.900Z,0
2017-01-03T05:33:24.910Z,0
2017-01-03T05:34:39.846Z,0
2017-01-03T05:35:24.940Z,0
2017-01-03T05:36:24.955Z,0
2017-01-03T05:38:24.992Z,0
2017-01-03T05:39:25.007Z,0
2017-01-03T05:40:25.021Z,0
2017-01-03T05:41:39.956Z,0
2017-01-03T05:42:25.053Z,0
2017-01-03T05:43:25.071Z,0
2017-01-03T05:44:25.089Z,0
2017-01-03T05:45:25.101Z,0
2017-01-03T05:46:25.122Z,0
2017-01-03T05:47:25.130Z,0
2017-01-03T05:48:40.064Z,0
2017-01-03T05:49:25.553Z,0
2017-01-03T05:50:25.181Z,0
2017-01-03T05:51:40.111Z,0
2017-01-03T05:52:40.128Z,0
2017-01-03T05:53:25.229Z,0
2017-01-03T05:55:25.257Z,0
2017-01-03T05:56:40.194Z,0
2017-01-03T05:57:25.289Z,0
2017-01-03T05:58:25.312Z,0
2017-01-03T05:59:25.322Z,0
2017-01-03T06:00:25.342Z,0
2017-01-03T06:01:25.359Z,0
2017-01-03T06:02:25.367Z,0
2017-01-03T06:03:40.301Z,0
2017-01-03T06:04:25.437Z,0
2017-01-03T06:05:25.413Z,0
2017-01-03T06:06:25.434Z,0
2017-01-03T06:07:40.366Z,0
2017-01-03T06:09:40.398Z,0
2017-01-03T06:10:25.882Z,0
2017-01-03T06:11:25.515Z,0
2017-01-03T06:13:25.544Z,0
2017-01-03T06:14:25.560Z,0
2017-01-03T06:15:25.604Z,0
2017-01-03T06:16:40.511Z,0
2017-01-03T06:17:25.625Z,0
2017-01-03T06:18:25.623Z,0
2017-01-03T06:19:25.671Z,0
2017-01-03T06:20:25.658Z,0
2017-01-03T06:22:25.687Z,0
2017-01-03T06:23:40.620Z,0
2017-01-03T06:24:25.752Z,0
2017-01-03T06:25:25.745Z,0
2017-01-03T06:26:25.750Z,0
2017-01-03T06:27:25.765Z,0
2017-01-03T06:28:40.701Z,0
2017-01-03T06:29:25.798Z,0
2017-01-03T06:30:25.814Z,0
2017-01-03T06:31:25.829Z,0
2017-01-03T06:32:25.845Z,0
2017-01-03T06:33:26.085Z,0
2017-01-03T06:34:40.798Z,0
2017-01-03T06:35:40.810Z,0
2017-01-03T06:36:40.826Z,0
2017-01-03T06:37:25.926Z,0
2017-01-03T06:38:25.941Z,0
2017-01-03T06:39:40.876Z,0
2017-01-03T06:40:40.890Z,0
2017-01-03T06:41:25.988Z,0
2017-01-03T06:42:26.007Z,0
2017-01-03T06:43:26.022Z,0
2017-01-03T06:44:40.957Z,0
2017-01-03T06:45:26.056Z,0
2017-01-03T06:46:26.071Z,0
2017-01-03T06:47:26.089Z,0
2017-01-03T06:48:26.100Z,0
2017-01-03T06:49:26.118Z,0
2017-01-03T06:50:26.139Z,0
2017-01-03T06:51:26.179Z,0
2017-01-03T06:52:26.166Z,0
2017-01-03T06:53:26.180Z,0
2017-01-03T06:54:26.199Z,0
2017-01-03T06:55:41.134Z,0
2017-01-03T06:56:26.234Z,0
2017-01-03T06:57:26.244Z,0
2017-01-03T06:58:26.260Z,0
2017-01-03T07:00:41.242Z,0
2017-01-03T07:01:26.310Z,0
2017-01-03T07:02:26.327Z,0
2017-01-03T07:03:26.346Z,0
2017-01-03T07:04:26.366Z,0
2017-01-03T07:05:26.378Z,0
2017-01-03T07:06:41.305Z,0
2017-01-03T07:07:41.321Z,0
2017-01-03T07:08:26.421Z,0
2017-01-03T07:09:26.436Z,0
2017-01-03T07:11:26.468Z,0
2017-01-03T07:12:26.498Z,0
2017-01-03T07:13:26.504Z,0
2017-01-03T07:14:41.433Z,0
2017-01-03T07:15:26.540Z,0
2017-01-03T07:16:41.471Z,0
2017-01-03T07:17:26.568Z,0
2017-01-03T07:18:26.581Z,0
2017-01-03T07:19:26.596Z,0
2017-01-03T07:20:26.626Z,0
2017-01-03T07:21:26.627Z,0
2017-01-03T07:22:41.569Z,0
2017-01-03T07:23:26.657Z,0
2017-01-03T07:24:26.683Z,0
2017-01-03T07:25:26.692Z,0
2017-01-03T07:26:41.629Z,0
2017-01-03T07:27:56.560Z,0
2017-01-03T07:28:56.575Z,0
2017-01-03T07:30:26.778Z,0
2017-01-03T07:31:41.708Z,0
2017-01-03T07:32:26.809Z,0
2017-01-03T07:34:26.839Z,0
2017-01-03T07:35:26.856Z,0
2017-01-03T07:36:41.793Z,0
2017-01-03T07:37:26.890Z,0
2017-01-03T07:38:26.906Z,0
2017-01-03T07:39:26.922Z,0
2017-01-03T07:40:26.934Z,0
2017-01-03T07:41:41.869Z,0
2017-01-03T07:42:41.892Z,0
2017-01-03T07:43:41.902Z,0
2017-01-03T07:44:26.999Z,0
2017-01-03T07:45:27.016Z,0
2017-01-03T07:46:27.034Z,0
2017-01-03T07:47:27.048Z,0
2017-01-03T07:48:27.065Z,0
2017-01-03T07:49:27.083Z,0
2017-01-03T07:50:27.097Z,0
2017-01-03T07:51:27.113Z,5
2017-01-03T07:52:27.133Z,5
2017-01-03T07:53:27.147Z,0
2017-01-03T07:54:27.165Z,0
2017-01-03T07:55:42.099Z,0
2017-01-03T07:56:27.192Z,0
2017-01-03T07:57:42.128Z,0
2017-01-03T07:58:42.144Z,0
2017-01-03T07:59:42.159Z,5
2017-01-03T08:00:27.257Z,5
2017-01-03T08:01:27.278Z,5
2017-01-03T08:02:27.291Z,5
2017-01-03T08:03:42.226Z,5
2017-01-03T08:04:27.325Z,5
2017-01-03T08:05:27.343Z,5
2017-01-03T08:06:27.354Z,5
2017-01-03T08:07:27.368Z,5
2017-01-03T08:08:27.392Z,5
2017-01-03T08:09:42.323Z,5
2017-01-03T08:10:27.419Z,5
2017-01-03T08:11:42.352Z,5
2017-01-03T08:12:27.456Z,5
2017-01-03T08:13:27.466Z,5
2017-01-03T08:14:42.403Z,5
2017-01-03T08:15:27.500Z,5
2017-01-03T08:16:27.517Z,5
2017-01-03T08:17:27.534Z,5
2017-01-03T08:18:27.547Z,5
2017-01-03T08:19:42.485Z,5
2017-01-03T08:20:27.596Z,5
2017-01-03T08:21:27.597Z,5
2017-01-03T08:22:27.662Z,5
2017-01-03T08:23:27.779Z,5
2017-01-03T08:24:27.648Z,5
2017-01-03T08:25:42.580Z,5
2017-01-03T08:26:27.678Z,10
2017-01-03T08:27:42.615Z,10
2017-01-03T08:28:27.710Z,5
2017-01-03T08:29:42.644Z,5
2017-01-03T08:30:42.664Z,5
2017-01-03T08:31:27.759Z,5
2017-01-03T08:32:27.775Z,10
2017-01-03T08:33:27.797Z,10
2017-01-03T08:34:27.809Z,10
2017-01-03T08:35:42.740Z,10
2017-01-03T08:36:27.846Z,10
2017-01-03T08:37:27.856Z,10
2017-01-03T08:38:27.875Z,10
2017-01-03T08:39:27.884Z,10
2017-01-03T08:40:27.904Z,10
2017-01-03T08:41:27.922Z,10
2017-01-03T08:42:27.936Z,10
2017-01-03T08:43:27.955Z,10
2017-01-03T08:44:27.967Z,10
2017-01-03T08:45:28.005Z,10
2017-01-03T08:46:42.920Z,10
2017-01-03T08:47:42.936Z,10
2017-01-03T08:48:28.047Z,10
2017-01-03T08:50:28.068Z,15
2017-01-03T08:51:42.998Z,15
2017-01-03T08:52:28.104Z,10
2017-01-03T08:53:28.120Z,10
2017-01-03T08:54:28.163Z,10
2017-01-03T08:55:57.990Z,10
2017-01-03T08:56:28.169Z,10
2017-01-03T08:57:28.184Z,10
2017-01-03T08:58:43.116Z,10
2017-01-03T08:59:28.244Z,10
2017-01-03T09:01:28.244Z,10
2017-01-03T09:02:28.291Z,5
2017-01-03T09:03:28.280Z,10
2017-01-03T09:04:28.295Z,10
2017-01-03T09:06:43.248Z,10
2017-01-03T09:07:28.350Z,10
2017-01-03T09:08:28.359Z,10
2017-01-03T09:09:28.376Z,10
2017-01-03T09:10:28.392Z,10
2017-01-03T09:11:28.410Z,10
2017-01-03T09:12:28.432Z,15
2017-01-03T09:13:28.443Z,10
2017-01-03T09:14:28.457Z,15
2017-01-03T09:15:28.473Z,15
2017-01-03T09:16:28.487Z,15
2017-01-03T09:17:43.424Z,10
2017-01-03T09:18:28.523Z,10
2017-01-03T09:19:28.924Z,10
2017-01-03T09:22:28.589Z,10
2017-01-03T09:23:28.603Z,15
2017-01-03T09:24:28.623Z,15
2017-01-03T09:25:28.635Z,10
2017-01-03T09:26:28.654Z,15
2017-01-03T09:27:28.668Z,15
2017-01-03T09:28:43.603Z,15
2017-01-03T09:29:28.699Z,10
2017-01-03T09:30:28.718Z,15
2017-01-03T09:31:28.732Z,10
2017-01-03T09:32:28.748Z,10
2017-01-03T09:33:43.683Z,15
2017-01-03T09:34:28.781Z,15
2017-01-03T09:35:43.713Z,30
2017-01-03T09:36:28.812Z,25
2017-01-03T09:37:28.834Z,25
2017-01-03T09:38:43.767Z,20
2017-01-03T09:39:43.806Z,25
2017-01-03T09:40:28.881Z,20
2017-01-03T09:41:28.892Z,20
2017-01-03T09:42:28.911Z,20
2017-01-03T09:43:28.927Z,20
2017-01-03T09:44:43.870Z,20
2017-01-03T09:45:28.988Z,20
2017-01-03T09:46:28.978Z,25
2017-01-03T09:47:29.094Z,25
2017-01-03T09:48:29.011Z,20
2017-01-03T09:49:58.859Z,20
2017-01-03T09:51:29.060Z,15
2017-01-03T09:53:29.091Z,15
2017-01-03T09:54:44.026Z,15
2017-01-03T09:55:29.125Z,15
2017-01-03T09:56:29.139Z,15
2017-01-03T09:57:29.158Z,15
2017-01-03T09:58:29.172Z,15
2017-01-03T09:59:29.190Z,15
2017-01-03T10:00:29.207Z,15
2017-01-03T10:01:29.221Z,15
2017-01-03T10:02:29.239Z,15
2017-01-03T10:03:29.255Z,10
2017-01-03T10:04:44.243Z,15
2017-01-03T10:05:29.291Z,15
2017-01-03T10:06:29.308Z,15
2017-01-03T10:07:44.235Z,15
2017-01-03T10:08:29.337Z,15
2017-01-03T10:09:29.359Z,15
2017-01-03T10:10:44.288Z,15
2017-01-03T10:11:29.386Z,15
2017-01-03T10:12:29.454Z,15
2017-01-03T10:13:29.419Z,15
2017-01-03T10:14:29.440Z,15
2017-01-03T10:15:29.452Z,15
2017-01-03T10:16:29.470Z,15
2017-01-03T10:17:29.487Z,15
2017-01-03T10:18:29.889Z,15
2017-01-03T10:19:29.516Z,15
2017-01-03T10:20:29.542Z,15
2017-01-03T10:21:29.551Z,20
2017-01-03T10:22:29.571Z,20
2017-01-03T10:23:29.588Z,20
2017-01-03T10:24:29.600Z,20
2017-01-03T10:25:44.542Z,20
2017-01-03T10:26:44.555Z,20
2017-01-03T10:27:29.648Z,15
2017-01-03T10:28:29.670Z,15
2017-01-03T10:29:29.694Z,15
2017-01-03T10:30:29.706Z,15
2017-01-03T10:31:44.637Z,15
2017-01-03T10:32:29.737Z,20
2017-01-03T10:33:29.754Z,20
2017-01-03T10:34:29.769Z,20
2017-01-03T10:36:29.802Z,20
2017-01-03T10:37:44.735Z,20
2017-01-03T10:38:29.835Z,20
2017-01-03T10:39:29.852Z,20
2017-01-03T10:40:29.866Z,15
2017-01-03T10:41:44.803Z,20
2017-01-03T10:42:29.901Z,20
2017-01-03T10:43:29.917Z,15
2017-01-03T10:44:29.938Z,20
2017-01-03T10:45:29.954Z,25
2017-01-03T10:47:30.081Z,25
2017-01-03T10:48:44.917Z,25
2017-01-03T10:49:30.034Z,25
2017-01-03T10:50:30.032Z,30
2017-01-03T10:51:44.969Z,25
2017-01-03T10:52:30.070Z,25
2017-01-03T10:53:30.090Z,20
2017-01-03T10:54:45.017Z,20
2017-01-03T10:55:30.120Z,20
2017-01-03T10:56:30.138Z,20
2017-01-03T10:57:30.153Z,25
2017-01-03T10:58:30.168Z,20
2017-01-03T10:59:30.187Z,25
2017-01-03T11:00:30.202Z,20
2017-01-03T11:01:30.218Z,25
2017-01-03T11:02:30.241Z,20
2017-01-03T11:03:45.171Z,25
2017-01-03T11:04:45.185Z,20
2017-01-03T11:05:30.289Z,20
2017-01-03T11:06:45.222Z,20
2017-01-03T11:07:30.319Z,20
2017-01-03T11:08:45.280Z,25
2017-01-03T11:09:30.353Z,20
2017-01-03T11:10:30.399Z,20
2017-01-03T11:12:30.403Z,20
2017-01-03T11:13:45.340Z,20
2017-01-03T11:14:30.439Z,20
2017-01-03T11:15:30.457Z,15
2017-01-03T11:16:30.471Z,15
2017-01-03T11:17:30.490Z,15
2017-01-03T11:18:30.508Z,15
2017-01-03T11:19:45.440Z,15
2017-01-03T11:20:30.540Z,15
2017-01-03T11:21:30.593Z,15
2017-01-03T11:22:30.574Z,15
2017-01-03T11:23:30.599Z,20
2017-01-03T11:24:45.525Z,20
2017-01-03T11:26:30.644Z,25
2017-01-03T11:27:30.662Z,25
2017-01-03T11:28:30.671Z,25
2017-01-03T11:29:45.610Z,20
2017-01-03T11:30:45.631Z,20
2017-01-03T11:31:30.726Z,25
2017-01-03T11:32:30.745Z,20
2017-01-03T11:33:45.680Z,20
2017-01-03T11:34:30.775Z,20
2017-01-03T11:35:30.815Z,25
2017-01-03T11:36:45.728Z,25
2017-01-03T11:37:30.829Z,25
2017-01-03T11:38:30.847Z,20
2017-01-03T11:39:45.778Z,25
2017-01-03T11:41:00.714Z,20
2017-01-03T11:42:30.912Z,20
2017-01-03T11:43:30.931Z,20
2017-01-03T11:44:30.946Z,25
2017-01-03T11:45:45.882Z,20
2017-01-03T11:46:30.984Z,20
2017-01-03T11:48:31.020Z,20
2017-01-03T11:49:31.027Z,20
2017-01-03T11:50:31.054Z,25
2017-01-03T11:51:31.065Z,30
2017-01-03T11:52:31.081Z,30
2017-01-03T11:53:31.098Z,30
2017-01-03T11:55:31.134Z,25
2017-01-03T11:56:31.151Z,25
2017-01-03T11:57:31.169Z,30
2017-01-03T11:58:31.184Z,30
2017-01-03T11:59:31.200Z,30
2017-01-03T12:00:31.222Z,40
2017-01-03T12:01:46.154Z,40
2017-01-03T12:03:31.270Z,40
2017-01-03T12:04:31.288Z,45
2017-01-03T12:05:31.302Z,40
2017-01-03T12:06:31.350Z,40
2017-01-03T12:07:31.339Z,45
2017-01-03T12:08:31.358Z,35
2017-01-03T12:09:31.373Z,30
2017-01-03T12:10:31.390Z,35
2017-01-03T12:11:46.324Z,40
2017-01-03T12:12:31.457Z,40
2017-01-03T12:13:31.444Z,40
2017-01-03T12:14:31.460Z,35
2017-01-03T12:15:31.475Z,30
2017-01-03T12:16:46.412Z,30
2017-01-03T12:17:46.438Z,30
2017-01-03T12:18:31.557Z,30
2017-01-03T12:19:31.541Z,30
2017-01-03T12:20:46.478Z,25
2017-01-03T12:21:31.583Z,20
2017-01-03T12:22:31.597Z,25
2017-01-03T12:23:46.528Z,20
2017-01-03T12:25:31.642Z,20
2017-01-03T12:26:31.664Z,20
2017-01-03T12:28:31.697Z,15
2017-01-03T12:29:46.628Z,15
2017-01-03T12:30:31.736Z,20
2017-01-03T12:31:31.753Z,20
2017-01-03T12:32:31.768Z,20
2017-01-03T12:33:31.787Z,15
2017-01-03T12:34:31.800Z,15
2017-01-03T12:35:31.814Z,15
2017-01-03T12:36:31.834Z,15
2017-01-03T12:37:31.852Z,15
2017-01-03T12:38:46.785Z,15
2017-01-03T12:39:31.889Z,15
2017-01-03T12:40:31.899Z,15
2017-01-03T12:41:31.918Z,15
2017-01-03T12:42:46.852Z,15
2017-01-03T12:43:46.871Z,15
2017-01-03T12:44:46.887Z,20
2017-01-03T12:45:31.992Z,15
2017-01-03T12:46:32.001Z,15
2017-01-03T12:47:32.026Z,15
2017-01-03T12:48:46.959Z,15
2017-01-03T12:49:32.054Z,15
2017-01-03T12:50:32.081Z,15
2017-01-03T12:51:32.094Z,15
2017-01-03T12:52:32.110Z,15
2017-01-03T12:53:32.122Z,10
2017-01-03T12:54:47.056Z,15
2017-01-03T12:55:47.072Z,10
2017-01-03T12:56:32.175Z,15
2017-01-03T12:57:47.110Z,10
2017-01-03T12:58:32.593Z,10
2017-01-03T12:59:32.236Z,10
2017-01-03T13:00:32.241Z,10
2017-01-03T13:01:32.258Z,10
2017-01-03T13:02:32.272Z,10
2017-01-03T13:04:47.232Z,10
2017-01-03T13:05:32.331Z,10
2017-01-03T13:06:32.348Z,15
2017-01-03T13:07:32.357Z,10
2017-01-03T13:08:32.378Z,10
2017-01-03T13:09:32.393Z,10
2017-01-03T13:10:32.406Z,10
2017-01-03T13:11:32.427Z,15
2017-01-03T13:12:47.363Z,15
2017-01-03T13:13:32.459Z,15
2017-01-03T13:14:32.484Z,15
2017-01-03T13:15:32.495Z,15
2017-01-03T13:16:47.426Z,15
2017-01-03T13:17:47.440Z,10
2017-01-03T13:18:32.744Z,15
2017-01-03T13:19:32.561Z,15
2017-01-03T13:20:47.496Z,15
2017-01-03T13:21:32.593Z,15
2017-01-03T13:22:32.610Z,15
2017-01-03T13:23:47.653Z,15
2017-01-03T13:24:32.643Z,15
2017-01-03T13:25:32.664Z,15
2017-01-03T13:26:32.679Z,15
2017-01-03T13:27:47.609Z,15
2017-01-03T13:28:33.150Z,15
2017-01-03T13:29:32.726Z,15
2017-01-03T13:31:02.578Z,10
2017-01-03T13:31:32.759Z,10
2017-01-03T13:32:32.780Z,10
2017-01-03T13:33:47.709Z,10
2017-01-03T13:36:47.765Z,10
2017-01-03T13:38:32.887Z,10
2017-01-03T13:39:32.893Z,10
2017-01-03T13:40:32.911Z,10
2017-01-03T13:41:32.926Z,10
2017-01-03T13:42:32.972Z,10
2017-01-03T13:43:32.963Z,10
2017-01-03T13:44:33.011Z,10
2017-01-03T13:45:47.913Z,10
2017-01-03T13:46:33.016Z,10
2017-01-03T13:48:33.051Z,10
2017-01-03T13:49:33.063Z,10
2017-01-03T13:51:48.012Z,10
2017-01-03T13:52:33.115Z,10
2017-01-03T13:53:33.130Z,10
2017-01-03T13:54:33.145Z,10
2017-01-03T13:55:33.162Z,5
2017-01-03T13:56:33.182Z,5
2017-01-03T13:57:33.204Z,10
2017-01-03T13:58:33.217Z,5
2017-01-03T13:59:33.229Z,10
2017-01-03T14:00:33.243Z,5
2017-01-03T14:01:33.260Z,5
2017-01-03T14:02:33.278Z,10
2017-01-03T14:03:33.303Z,10
2017-01-03T14:05:33.327Z,10
2017-01-03T14:06:33.342Z,5
2017-01-03T14:07:33.364Z,5
2017-01-03T14:08:33.379Z,5
2017-01-03T14:09:33.397Z,5
2017-01-03T14:10:33.415Z,10
2017-01-03T14:11:33.426Z,10
2017-01-03T14:12:48.367Z,5
2017-01-03T14:13:48.379Z,5
2017-01-03T14:14:33.894Z,5
2017-01-03T14:15:33.504Z,5
2017-01-03T14:16:33.516Z,5
2017-01-03T14:17:33.527Z,5
2017-01-03T14:19:48.479Z,5
2017-01-03T14:21:33.597Z,5
2017-01-03T14:22:33.612Z,5
2017-01-03T14:23:48.545Z,5
2017-01-03T14:25:33.665Z,5
2017-01-03T14:26:33.677Z,5
2017-01-03T14:27:33.729Z,5
2017-01-03T14:28:48.633Z,5
2017-01-03T14:29:33.729Z,5
2017-01-03T14:30:33.744Z,5
2017-01-03T14:31:33.771Z,5
2017-01-03T14:32:33.775Z,5
2017-01-03T14:33:33.795Z,5
2017-01-03T14:34:48.730Z,5
2017-01-03T14:35:33.857Z,0
2017-01-03T14:36:33.852Z,0
2017-01-03T14:37:33.865Z,0
2017-01-03T14:38:33.879Z,0
2017-01-03T14:40:33.913Z,0
2017-01-03T14:41:33.929Z,0
2017-01-03T14:42:33.944Z,0
2017-01-03T14:43:48.880Z,0
2017-01-03T14:44:33.976Z,0
2017-01-03T14:45:34.000Z,0
2017-01-03T14:46:48.929Z,0
2017-01-03T14:47:48.949Z,0
2017-01-03T14:48:48.966Z,0
2017-01-03T14:49:48.985Z,0
2017-01-03T14:51:03.912Z,0
2017-01-03T14:51:34.100Z,0
2017-01-03T14:52:34.115Z,0
2017-01-03T14:53:34.147Z,0
2017-01-03T14:54:34.153Z,0
2017-01-03T14:55:49.080Z,0
2017-01-03T14:56:34.185Z,0
2017-01-03T14:57:34.194Z,0
2017-01-03T14:58:49.134Z,0
2017-01-03T14:59:34.228Z,0
2017-01-03T15:00:49.162Z,0
2017-01-03T15:01:34.313Z,0
2017-01-03T15:02:34.306Z,0
2017-01-03T15:03:49.215Z,0
2017-01-03T15:04:34.463Z,0
2017-01-03T15:05:49.247Z,0
2017-01-03T15:06:49.263Z,0
2017-01-03T15:07:34.362Z,0
2017-01-03T15:08:34.377Z,0
2017-01-03T15:09:34.392Z,0
2017-01-03T15:10:34.412Z,0
2017-01-03T15:11:49.345Z,0
2017-01-03T15:12:34.447Z,0
2017-01-03T15:13:34.461Z,0
2017-01-03T15:14:34.475Z,0
2017-01-03T15:15:49.414Z,0
2017-01-03T15:16:49.428Z,0
2017-01-03T15:17:34.557Z,0
2017-01-03T15:18:34.547Z,0
2017-01-03T15:19:34.955Z,0
2017-01-03T15:20:49.498Z,0
2017-01-03T15:21:49.512Z,0
2017-01-03T15:22:34.613Z,0
2017-01-03T15:23:34.629Z,0
2017-01-03T15:24:49.592Z,0
2017-01-03T15:25:34.667Z,0
2017-01-03T15:26:49.598Z,0
2017-01-03T15:27:34.696Z,0
2017-01-03T15:28:34.716Z,0
2017-01-03T15:29:34.736Z,0
2017-01-03T15:30:34.745Z,0
2017-01-03T15:31:34.766Z,0
2017-01-03T15:32:49.697Z,0
2017-01-03T15:35:49.750Z,0
2017-01-03T15:36:34.845Z,0
2017-01-03T15:37:34.860Z,0
2017-01-03T15:38:34.881Z,0
2017-01-03T15:39:34.894Z,0
2017-01-03T15:40:34.937Z,0
2017-01-03T15:41:34.927Z,0
2017-01-03T15:42:34.948Z,0